Johnson City, Tennessee
Current Conditions -  °F | °C
As of 12:35 PM on Sunday 23 Nov 2014 (Local Time) from K0A9 Reporting Station
Light Rain Light Rain  
Wind Chill: 52°   Ceiling: 4200
Heat Index: 52°   Visibility: 7mi
Dew Point: 46°   Wind: 17mph
Humidity: 82%   Direction: 80°E
Pressure: 29.97"   Gusts: NA
Location:  36.32°N, 82.34°W
Report Text: K0A9 231735Z AUTO 08015KT 7SM -RA FEW025 SCT034 BKN042 11/08 A2997 RMK
Loading
Personal Weather Stations






























Interactive Weather Map New forecast layout! Learn more

10-Day Weather Forecast

Advertisements
Track Severe Weather on mobile